sensor_id;sensor_type;location;lat;lon;timestamp;P1;durP1;ratioP1;P2;durP2;ratioP2
13943;SDS011;7044;53.286;8.534;2023-06-26T00:01:06;7.07;;;6.38;;
13943;SDS011;7044;53.286;8.534;2023-06-26T00:03:37;10.45;;;6.38;;
13943;SDS011;7044;53.286;8.534;2023-06-26T00:06:11;9.00;;;5.88;;
13943;SDS011;7044;53.286;8.534;2023-06-26T00:08:38;8.77;;;6.30;;
13943;SDS011;7044;53.286;8.534;2023-06-26T00:11:11;6.93;;;6.30;;
13943;SDS011;7044;53.286;8.534;2023-06-26T00:13:39;8.63;;;6.60;;
13943;SDS011;7044;53.286;8.534;2023-06-26T00:16:07;10.10;;;5.80;;
13943;SDS011;7044;53.286;8.534;2023-06-26T00:18:37;6.75;;;6.13;;
13943;SDS011;7044;53.286;8.534;2023-06-26T00:21:05;8.07;;;6.15;;
13943;SDS011;7044;53.286;8.534;2023-06-26T00:23:37;6.82;;;5.90;;
13943;SDS011;7044;53.286;8.534;2023-06-26T00:26:05;7.55;;;5.82;;
13943;SDS011;7044;53.286;8.534;2023-06-26T00:28:35;6.53;;;5.82;;
13943;SDS011;7044;53.286;8.534;2023-06-26T00:31:03;7.30;;;5.97;;
13943;SDS011;7044;53.286;8.534;2023-06-26T00:33:31;9.07;;;6.05;;
13943;SDS011;7044;53.286;8.534;2023-06-26T00:36:00;10.52;;;6.55;;
13943;SDS011;7044;53.286;8.534;2023-06-26T00:38:28;9.35;;;6.50;;
13943;SDS011;7044;53.286;8.534;2023-06-26T00:40:56;8.15;;;6.80;;
13943;SDS011;7044;53.286;8.534;2023-06-26T00:43:23;7.32;;;6.55;;
13943;SDS011;7044;53.286;8.534;2023-06-26T00:45:52;7.25;;;6.32;;
13943;SDS011;7044;53.286;8.534;2023-06-26T00:48:20;8.88;;;6.45;;
13943;SDS011;7044;53.286;8.534;2023-06-26T00:50:47;7.30;;;6.15;;
13943;SDS011;7044;53.286;8.534;2023-06-26T00:53:19;9.23;;;6.22;;
13943;SDS011;7044;53.286;8.534;2023-06-26T00:55:50;11.40;;;6.78;;
13943;SDS011;7044;53.286;8.534;2023-06-26T00:58:18;7.93;;;6.00;;
13943;SDS011;7044;53.286;8.534;2023-06-26T01:00:48;8.07;;;6.57;;
13943;SDS011;7044;53.286;8.534;2023-06-26T01:03:20;7.25;;;6.35;;
13943;SDS011;7044;53.286;8.534;2023-06-26T01:05:50;7.03;;;6.32;;
13943;SDS011;7044;53.286;8.534;2023-06-26T01:08:25;9.73;;;7.07;;
13943;SDS011;7044;53.286;8.534;2023-06-26T01:10:53;7.20;;;6.15;;
13943;SDS011;7044;53.286;8.534;2023-06-26T01:13:20;8.60;;;6.95;;
13943;SDS011;7044;53.286;8.534;2023-06-26T01:15:48;6.90;;;6.20;;
13943;SDS011;7044;53.286;8.534;2023-06-26T01:18:18;10.55;;;6.80;;
13943;SDS011;7044;53.286;8.534;2023-06-26T01:20:46;9.10;;;6.55;;
13943;SDS011;7044;53.286;8.534;2023-06-26T01:23:15;7.38;;;6.50;;
13943;SDS011;7044;53.286;8.534;2023-06-26T01:25:56;7.47;;;6.00;;
13943;SDS011;7044;53.286;8.534;2023-06-26T01:29:01;7.72;;;6.88;;
13943;SDS011;7044;53.286;8.534;2023-06-26T01:31:35;7.97;;;6.05;;
13943;SDS011;7044;53.286;8.534;2023-06-26T01:34:04;11.38;;;6.38;;
13943;SDS011;7044;53.286;8.534;2023-06-26T01:36:32;7.65;;;6.38;;
13943;SDS011;7044;53.286;8.534;2023-06-26T01:38:59;8.55;;;6.63;;
13943;SDS011;7044;53.286;8.534;2023-06-26T01:41:27;11.23;;;7.18;;
13943;SDS011;7044;53.286;8.534;2023-06-26T01:44:03;7.78;;;6.40;;
13943;SDS011;7044;53.286;8.534;2023-06-26T01:46:43;10.43;;;6.60;;
13943;SDS011;7044;53.286;8.534;2023-06-26T01:49:21;11.07;;;6.93;;
13943;SDS011;7044;53.286;8.534;2023-06-26T01:51:58;9.32;;;6.60;;
13943;SDS011;7044;53.286;8.534;2023-06-26T01:54:29;9.10;;;7.07;;
13943;SDS011;7044;53.286;8.534;2023-06-26T01:57:03;8.50;;;6.53;;
13943;SDS011;7044;53.286;8.534;2023-06-26T01:59:33;9.23;;;7.20;;
13943;SDS011;7044;53.286;8.534;2023-06-26T02:02:01;12.07;;;7.18;;
13943;SDS011;7044;53.286;8.534;2023-06-26T02:04:28;12.80;;;7.55;;
13943;SDS011;7044;53.286;8.534;2023-06-26T02:06:57;9.73;;;6.82;;
13943;SDS011;7044;53.286;8.534;2023-06-26T02:09:24;9.05;;;7.10;;
13943;SDS011;7044;53.286;8.534;2023-06-26T02:11:52;12.20;;;7.07;;
13943;SDS011;7044;53.286;8.534;2023-06-26T02:14:19;8.90;;;6.05;;
13943;SDS011;7044;53.286;8.534;2023-06-26T02:16:49;11.63;;;6.50;;
13943;SDS011;7044;53.286;8.534;2023-06-26T02:19:17;8.57;;;6.68;;
13943;SDS011;7044;53.286;8.534;2023-06-26T02:21:46;7.25;;;6.22;;
13943;SDS011;7044;53.286;8.534;2023-06-26T02:24:15;8.23;;;6.38;;
13943;SDS011;7044;53.286;8.534;2023-06-26T02:26:48;8.23;;;7.03;;
13943;SDS011;7044;53.286;8.534;2023-06-26T02:29:20;9.45;;;6.88;;
13943;SDS011;7044;53.286;8.534;2023-06-26T02:31:50;9.32;;;7.07;;
13943;SDS011;7044;53.286;8.534;2023-06-26T02:34:20;8.55;;;6.38;;
13943;SDS011;7044;53.286;8.534;2023-06-26T02:36:48;10.02;;;6.55;;
13943;SDS011;7044;53.286;8.534;2023-06-26T02:39:15;7.82;;;6.88;;
13943;SDS011;7044;53.286;8.534;2023-06-26T02:41:43;11.35;;;7.75;;
13943;SDS011;7044;53.286;8.534;2023-06-26T02:44:12;9.70;;;6.80;;
13943;SDS011;7044;53.286;8.534;2023-06-26T02:46:40;9.88;;;6.47;;
13943;SDS011;7044;53.286;8.534;2023-06-26T02:49:09;10.02;;;6.75;;
13943;SDS011;7044;53.286;8.534;2023-06-26T02:51:37;9.18;;;6.72;;
13943;SDS011;7044;53.286;8.534;2023-06-26T02:54:05;18.50;;;7.57;;
13943;SDS011;7044;53.286;8.534;2023-06-26T02:56:40;9.40;;;6.72;;
13943;SDS011;7044;53.286;8.534;2023-06-26T02:59:08;8.02;;;6.78;;
13943;SDS011;7044;53.286;8.534;2023-06-26T03:01:35;10.60;;;6.90;;
13943;SDS011;7044;53.286;8.534;2023-06-26T03:04:02;12.30;;;7.47;;
13943;SDS011;7044;53.286;8.534;2023-06-26T03:06:32;10.73;;;7.80;;
13943;SDS011;7044;53.286;8.534;2023-06-26T03:08:59;13.65;;;7.47;;
13943;SDS011;7044;53.286;8.534;2023-06-26T03:11:29;13.93;;;7.47;;
13943;SDS011;7044;53.286;8.534;2023-06-26T03:13:58;7.40;;;6.57;;
13943;SDS011;7044;53.286;8.534;2023-06-26T03:16:26;8.07;;;7.25;;
13943;SDS011;7044;53.286;8.534;2023-06-26T03:18:54;7.60;;;6.78;;
13943;SDS011;7044;53.286;8.534;2023-06-26T03:21:21;9.35;;;6.70;;
13943;SDS011;7044;53.286;8.534;2023-06-26T03:23:51;7.35;;;6.60;;
13943;SDS011;7044;53.286;8.534;2023-06-26T03:26:18;8.75;;;6.93;;
13943;SDS011;7044;53.286;8.534;2023-06-26T03:28:54;9.93;;;7.10;;
13943;SDS011;7044;53.286;8.534;2023-06-26T03:31:21;11.32;;;6.93;;
13943;SDS011;7044;53.286;8.534;2023-06-26T03:33:53;8.75;;;7.07;;
13943;SDS011;7044;53.286;8.534;2023-06-26T03:36:21;12.50;;;7.55;;
13943;SDS011;7044;53.286;8.534;2023-06-26T03:38:48;10.82;;;6.43;;
13943;SDS011;7044;53.286;8.534;2023-06-26T03:41:17;7.75;;;6.72;;
13943;SDS011;7044;53.286;8.534;2023-06-26T03:43:48;10.20;;;7.35;;
13943;SDS011;7044;53.286;8.534;2023-06-26T03:46:15;17.58;;;7.45;;
13943;SDS011;7044;53.286;8.534;2023-06-26T03:48:43;10.65;;;7.32;;
13943;SDS011;7044;53.286;8.534;2023-06-26T03:51:14;8.23;;;7.30;;
13943;SDS011;7044;53.286;8.534;2023-06-26T03:53:42;8.45;;;6.95;;
13943;SDS011;7044;53.286;8.534;2023-06-26T03:56:09;9.27;;;6.80;;
13943;SDS011;7044;53.286;8.534;2023-06-26T03:58:38;7.68;;;6.38;;
13943;SDS011;7044;53.286;8.534;2023-06-26T04:01:05;7.65;;;6.90;;
13943;SDS011;7044;53.286;8.534;2023-06-26T04:03:33;8.38;;;6.80;;
13943;SDS011;7044;53.286;8.534;2023-06-26T04:06:00;10.55;;;6.65;;
13943;SDS011;7044;53.286;8.534;2023-06-26T04:08:27;12.70;;;7.18;;
13943;SDS011;7044;53.286;8.534;2023-06-26T04:10:55;7.68;;;6.47;;
13943;SDS011;7044;53.286;8.534;2023-06-26T04:13:25;8.90;;;6.95;;
13943;SDS011;7044;53.286;8.534;2023-06-26T04:16:00;7.93;;;6.70;;
13943;SDS011;7044;53.286;8.534;2023-06-26T04:18:28;9.10;;;6.38;;
13943;SDS011;7044;53.286;8.534;2023-06-26T04:21:04;10.10;;;7.22;;
13943;SDS011;7044;53.286;8.534;2023-06-26T04:23:33;13.02;;;6.43;;
13943;SDS011;7044;53.286;8.534;2023-06-26T04:26:03;10.43;;;6.97;;
13943;SDS011;7044;53.286;8.534;2023-06-26T04:28:44;14.52;;;7.60;;
13943;SDS011;7044;53.286;8.534;2023-06-26T04:31:12;10.70;;;6.68;;
13943;SDS011;7044;53.286;8.534;2023-06-26T04:33:43;9.15;;;6.47;;
13943;SDS011;7044;53.286;8.534;2023-06-26T04:36:10;8.90;;;6.60;;
13943;SDS011;7044;53.286;8.534;2023-06-26T04:38:38;9.98;;;7.43;;
13943;SDS011;7044;53.286;8.534;2023-06-26T04:41:08;9.27;;;6.40;;
13943;SDS011;7044;53.286;8.534;2023-06-26T04:43:35;8.73;;;6.38;;
13943;SDS011;7044;53.286;8.534;2023-06-26T04:46:05;15.48;;;7.05;;
13943;SDS011;7044;53.286;8.534;2023-06-26T04:48:43;12.02;;;6.65;;
13943;SDS011;7044;53.286;8.534;2023-06-26T04:51:11;9.52;;;6.38;;
13943;SDS011;7044;53.286;8.534;2023-06-26T04:53:38;10.00;;;5.82;;
13943;SDS011;7044;53.286;8.534;2023-06-26T04:56:05;9.45;;;6.85;;
13943;SDS011;7044;53.286;8.534;2023-06-26T04:58:34;11.50;;;6.70;;
13943;SDS011;7044;53.286;8.534;2023-06-26T05:01:01;10.13;;;6.57;;
13943;SDS011;7044;53.286;8.534;2023-06-26T05:03:36;10.45;;;6.40;;
13943;SDS011;7044;53.286;8.534;2023-06-26T05:06:11;8.05;;;6.70;;
13943;SDS011;7044;53.286;8.534;2023-06-26T05:08:38;9.40;;;6.25;;
13943;SDS011;7044;53.286;8.534;2023-06-26T05:11:07;12.98;;;6.57;;
13943;SDS011;7044;53.286;8.534;2023-06-26T05:13:35;6.85;;;6.15;;
13943;SDS011;7044;53.286;8.534;2023-06-26T05:16:11;9.93;;;6.30;;
13943;SDS011;7044;53.286;8.534;2023-06-26T05:18:54;7.38;;;5.32;;
13943;SDS011;7044;53.286;8.534;2023-06-26T05:21:22;6.63;;;5.90;;
13943;SDS011;7044;53.286;8.534;2023-06-26T05:23:56;7.30;;;5.78;;
13943;SDS011;7044;53.286;8.534;2023-06-26T05:26:25;8.82;;;5.50;;
13943;SDS011;7044;53.286;8.534;2023-06-26T05:31:25;8.70;;;5.93;;
13943;SDS011;7044;53.286;8.534;2023-06-26T05:34:00;6.45;;;5.75;;
13943;SDS011;7044;53.286;8.534;2023-06-26T05:36:34;6.40;;;5.63;;
13943;SDS011;7044;53.286;8.534;2023-06-26T05:39:02;6.00;;;5.47;;
13943;SDS011;7044;53.286;8.534;2023-06-26T05:41:33;10.02;;;5.50;;
13943;SDS011;7044;53.286;8.534;2023-06-26T05:44:12;8.15;;;5.97;;
13943;SDS011;7044;53.286;8.534;2023-06-26T05:46:40;7.85;;;6.47;;
13943;SDS011;7044;53.286;8.534;2023-06-26T05:49:09;6.53;;;5.82;;
13943;SDS011;7044;53.286;8.534;2023-06-26T05:51:38;6.20;;;5.60;;
13943;SDS011;7044;53.286;8.534;2023-06-26T05:54:06;6.57;;;5.72;;
13943;SDS011;7044;53.286;8.534;2023-06-26T05:56:34;6.47;;;5.88;;
13943;SDS011;7044;53.286;8.534;2023-06-26T05:59:02;8.95;;;5.82;;
13943;SDS011;7044;53.286;8.534;2023-06-26T06:01:31;8.73;;;5.22;;
13943;SDS011;7044;53.286;8.534;2023-06-26T06:04:00;6.10;;;5.50;;
13943;SDS011;7044;53.286;8.534;2023-06-26T06:06:29;7.60;;;5.85;;
13943;SDS011;7044;53.286;8.534;2023-06-26T06:09:00;6.20;;;5.60;;
13943;SDS011;7044;53.286;8.534;2023-06-26T06:11:29;8.32;;;5.90;;
13943;SDS011;7044;53.286;8.534;2023-06-26T06:13:56;10.80;;;6.22;;
13943;SDS011;7044;53.286;8.534;2023-06-26T06:16:25;10.02;;;6.70;;
13943;SDS011;7044;53.286;8.534;2023-06-26T06:18:54;6.97;;;5.63;;
13943;SDS011;7044;53.286;8.534;2023-06-26T06:21:21;7.18;;;5.85;;
13943;SDS011;7044;53.286;8.534;2023-06-26T06:26:22;6.60;;;5.97;;
13943;SDS011;7044;53.286;8.534;2023-06-26T06:28:50;7.43;;;6.72;;
13943;SDS011;7044;53.286;8.534;2023-06-26T06:31:18;9.43;;;5.75;;
13943;SDS011;7044;53.286;8.534;2023-06-26T06:33:53;11.27;;;6.80;;
13943;SDS011;7044;53.286;8.534;2023-06-26T06:36:31;8.50;;;6.90;;
13943;SDS011;7044;53.286;8.534;2023-06-26T06:39:00;10.27;;;7.00;;
13943;SDS011;7044;53.286;8.534;2023-06-26T06:41:33;7.93;;;7.13;;
13943;SDS011;7044;53.286;8.534;2023-06-26T06:44:00;10.00;;;7.53;;
13943;SDS011;7044;53.286;8.534;2023-06-26T06:46:31;11.20;;;8.32;;
13943;SDS011;7044;53.286;8.534;2023-06-26T06:48:58;13.63;;;9.00;;
13943;SDS011;7044;53.286;8.534;2023-06-26T06:51:29;9.50;;;8.13;;
13943;SDS011;7044;53.286;8.534;2023-06-26T06:54:02;9.10;;;7.97;;
13943;SDS011;7044;53.286;8.534;2023-06-26T06:56:34;8.07;;;7.20;;
13943;SDS011;7044;53.286;8.534;2023-06-26T06:59:01;8.77;;;7.03;;
13943;SDS011;7044;53.286;8.534;2023-06-26T07:01:28;8.95;;;8.05;;
13943;SDS011;7044;53.286;8.534;2023-06-26T07:03:55;8.02;;;7.00;;
13943;SDS011;7044;53.286;8.534;2023-06-26T07:06:22;9.18;;;8.27;;
13943;SDS011;7044;53.286;8.534;2023-06-26T07:08:49;11.55;;;7.88;;
13943;SDS011;7044;53.286;8.534;2023-06-26T07:11:16;11.07;;;7.72;;
13943;SDS011;7044;53.286;8.534;2023-06-26T07:13:44;11.68;;;9.05;;
13943;SDS011;7044;53.286;8.534;2023-06-26T07:16:11;10.35;;;6.88;;
13943;SDS011;7044;53.286;8.534;2023-06-26T07:18:40;10.32;;;6.82;;
13943;SDS011;7044;53.286;8.534;2023-06-26T07:21:06;8.57;;;6.60;;
13943;SDS011;7044;53.286;8.534;2023-06-26T07:23:33;9.70;;;6.63;;
13943;SDS011;7044;53.286;8.534;2023-06-26T07:26:00;7.95;;;7.00;;
13943;SDS011;7044;53.286;8.534;2023-06-26T07:28:27;11.23;;;7.28;;
13943;SDS011;7044;53.286;8.534;2023-06-26T07:30:55;7.97;;;6.97;;
13943;SDS011;7044;53.286;8.534;2023-06-26T07:33:22;9.02;;;7.82;;
13943;SDS011;7044;53.286;8.534;2023-06-26T07:35:48;12.20;;;7.40;;
13943;SDS011;7044;53.286;8.534;2023-06-26T07:38:15;9.27;;;7.60;;
13943;SDS011;7044;53.286;8.534;2023-06-26T07:40:42;13.52;;;8.40;;
13943;SDS011;7044;53.286;8.534;2023-06-26T07:43:09;13.48;;;8.18;;
13943;SDS011;7044;53.286;8.534;2023-06-26T07:45:35;17.30;;;7.75;;
13943;SDS011;7044;53.286;8.534;2023-06-26T07:48:05;10.57;;;7.57;;
13943;SDS011;7044;53.286;8.534;2023-06-26T07:50:34;14.40;;;8.63;;
13943;SDS011;7044;53.286;8.534;2023-06-26T07:53:00;9.55;;;7.95;;
13943;SDS011;7044;53.286;8.534;2023-06-26T07:55:27;10.98;;;8.27;;
13943;SDS011;7044;53.286;8.534;2023-06-26T07:57:54;9.93;;;7.90;;
13943;SDS011;7044;53.286;8.534;2023-06-26T08:00:21;9.65;;;7.80;;
13943;SDS011;7044;53.286;8.534;2023-06-26T08:02:48;11.80;;;7.88;;
13943;SDS011;7044;53.286;8.534;2023-06-26T08:05:16;13.00;;;7.65;;
13943;SDS011;7044;53.286;8.534;2023-06-26T08:07:42;14.25;;;8.32;;
13943;SDS011;7044;53.286;8.534;2023-06-26T08:10:09;31.58;;;9.68;;
13943;SDS011;7044;53.286;8.534;2023-06-26T08:12:36;24.50;;;10.40;;
13943;SDS011;7044;53.286;8.534;2023-06-26T08:15:05;20.88;;;9.82;;
13943;SDS011;7044;53.286;8.534;2023-06-26T08:17:33;17.95;;;10.52;;
13943;SDS011;7044;53.286;8.534;2023-06-26T08:20:00;13.10;;;10.52;;
13943;SDS011;7044;53.286;8.534;2023-06-26T08:22:29;14.52;;;10.35;;
13943;SDS011;7044;53.286;8.534;2023-06-26T08:24:55;14.57;;;9.80;;
13943;SDS011;7044;53.286;8.534;2023-06-26T08:27:22;16.50;;;10.50;;
13943;SDS011;7044;53.286;8.534;2023-06-26T08:29:49;17.10;;;10.95;;
13943;SDS011;7044;53.286;8.534;2023-06-26T08:32:16;19.55;;;11.75;;
13943;SDS011;7044;53.286;8.534;2023-06-26T08:34:43;16.98;;;11.35;;
13943;SDS011;7044;53.286;8.534;2023-06-26T08:37:09;21.50;;;12.52;;
13943;SDS011;7044;53.286;8.534;2023-06-26T08:39:38;17.88;;;11.48;;
13943;SDS011;7044;53.286;8.534;2023-06-26T08:42:04;15.95;;;11.85;;
13943;SDS011;7044;53.286;8.534;2023-06-26T08:44:31;11.50;;;10.23;;
13943;SDS011;7044;53.286;8.534;2023-06-26T08:46:59;13.23;;;10.10;;
13943;SDS011;7044;53.286;8.534;2023-06-26T08:49:28;13.32;;;8.93;;
13943;SDS011;7044;53.286;8.534;2023-06-26T08:52:02;12.63;;;8.80;;
13943;SDS011;7044;53.286;8.534;2023-06-26T08:54:33;13.77;;;8.00;;
13943;SDS011;7044;53.286;8.534;2023-06-26T08:57:06;10.82;;;6.85;;
13943;SDS011;7044;53.286;8.534;2023-06-26T08:59:33;11.35;;;6.88;;
13943;SDS011;7044;53.286;8.534;2023-06-26T09:02:00;14.98;;;5.93;;
13943;SDS011;7044;53.286;8.534;2023-06-26T09:04:27;16.33;;;6.80;;
13943;SDS011;7044;53.286;8.534;2023-06-26T09:06:54;9.88;;;5.03;;
13943;SDS011;7044;53.286;8.534;2023-06-26T09:09:21;8.25;;;5.40;;
13943;SDS011;7044;53.286;8.534;2023-06-26T09:11:48;10.77;;;4.53;;
13943;SDS011;7044;53.286;8.534;2023-06-26T09:14:16;9.70;;;3.58;;
13943;SDS011;7044;53.286;8.534;2023-06-26T09:16:43;10.27;;;4.20;;
13943;SDS011;7044;53.286;8.534;2023-06-26T09:19:11;9.73;;;3.72;;
13943;SDS011;7044;53.286;8.534;2023-06-26T09:21:39;10.38;;;3.80;;
13943;SDS011;7044;53.286;8.534;2023-06-26T09:24:07;8.10;;;3.78;;
13943;SDS011;7044;53.286;8.534;2023-06-26T09:26:35;10.60;;;3.38;;
13943;SDS011;7044;53.286;8.534;2023-06-26T09:29:02;7.35;;;2.85;;
13943;SDS011;7044;53.286;8.534;2023-06-26T09:31:30;6.38;;;2.65;;
13943;SDS011;7044;53.286;8.534;2023-06-26T09:33:59;5.55;;;2.28;;
13943;SDS011;7044;53.286;8.534;2023-06-26T09:36:27;5.55;;;2.10;;
13943;SDS011;7044;53.286;8.534;2023-06-26T09:38:58;4.95;;;2.35;;
13943;SDS011;7044;53.286;8.534;2023-06-26T09:41:25;4.82;;;2.40;;
13943;SDS011;7044;53.286;8.534;2023-06-26T09:43:53;6.40;;;2.42;;
13943;SDS011;7044;53.286;8.534;2023-06-26T09:46:25;6.38;;;2.28;;
13943;SDS011;7044;53.286;8.534;2023-06-26T09:48:58;5.50;;;2.13;;
13943;SDS011;7044;53.286;8.534;2023-06-26T09:51:28;4.18;;;1.95;;
13943;SDS011;7044;53.286;8.534;2023-06-26T09:53:56;3.58;;;1.80;;
13943;SDS011;7044;53.286;8.534;2023-06-26T09:56:23;6.00;;;2.10;;
13943;SDS011;7044;53.286;8.534;2023-06-26T09:58:50;6.05;;;1.92;;
13943;SDS011;7044;53.286;8.534;2023-06-26T10:01:17;7.25;;;2.17;;
13943;SDS011;7044;53.286;8.534;2023-06-26T10:03:44;4.93;;;1.77;;
13943;SDS011;7044;53.286;8.534;2023-06-26T10:06:12;4.57;;;1.42;;
13943;SDS011;7044;53.286;8.534;2023-06-26T10:08:41;6.55;;;1.80;;
13943;SDS011;7044;53.286;8.534;2023-06-26T10:11:09;9.00;;;2.15;;
13943;SDS011;7044;53.286;8.534;2023-06-26T10:13:42;3.75;;;1.88;;
13943;SDS011;7044;53.286;8.534;2023-06-26T10:16:11;6.15;;;1.73;;
13943;SDS011;7044;53.286;8.534;2023-06-26T10:18:39;5.28;;;1.98;;
13943;SDS011;7044;53.286;8.534;2023-06-26T10:21:06;8.10;;;1.88;;
13943;SDS011;7044;53.286;8.534;2023-06-26T10:23:36;2.53;;;1.70;;
13943;SDS011;7044;53.286;8.534;2023-06-26T10:26:05;2.88;;;1.58;;
13943;SDS011;7044;53.286;8.534;2023-06-26T10:28:34;7.60;;;4.00;;
13943;SDS011;7044;53.286;8.534;2023-06-26T10:31:03;5.13;;;1.50;;
13943;SDS011;7044;53.286;8.534;2023-06-26T10:33:32;3.13;;;1.50;;
13943;SDS011;7044;53.286;8.534;2023-06-26T10:36:12;3.50;;;1.48;;
13943;SDS011;7044;53.286;8.534;2023-06-26T10:38:51;1.92;;;1.60;;
13943;SDS011;7044;53.286;8.534;2023-06-26T10:41:19;4.60;;;1.73;;
13943;SDS011;7044;53.286;8.534;2023-06-26T10:43:48;5.50;;;1.60;;
13943;SDS011;7044;53.286;8.534;2023-06-26T10:46:17;5.72;;;1.73;;
13943;SDS011;7044;53.286;8.534;2023-06-26T10:48:57;8.10;;;2.20;;
13943;SDS011;7044;53.286;8.534;2023-06-26T10:51:24;2.78;;;1.50;;
13943;SDS011;7044;53.286;8.534;2023-06-26T10:53:54;6.53;;;2.05;;
13943;SDS011;7044;53.286;8.534;2023-06-26T10:56:23;7.88;;;1.65;;
13943;SDS011;7044;53.286;8.534;2023-06-26T10:59:14;7.45;;;2.25;;
13943;SDS011;7044;53.286;8.534;2023-06-26T11:01:42;4.88;;;1.75;;
13943;SDS011;7044;53.286;8.534;2023-06-26T11:04:10;10.02;;;1.70;;
13943;SDS011;7044;53.286;8.534;2023-06-26T11:06:39;3.42;;;1.95;;
13943;SDS011;7044;53.286;8.534;2023-06-26T11:09:08;2.63;;;1.90;;
13943;SDS011;7044;53.286;8.534;2023-06-26T11:11:55;3.35;;;1.65;;
13943;SDS011;7044;53.286;8.534;2023-06-26T11:14:40;2.63;;;1.48;;
13943;SDS011;7044;53.286;8.534;2023-06-26T11:17:08;5.22;;;1.73;;
13943;SDS011;7044;53.286;8.534;2023-06-26T11:19:35;4.88;;;1.42;;
13943;SDS011;7044;53.286;8.534;2023-06-26T11:22:03;6.03;;;2.10;;
13943;SDS011;7044;53.286;8.534;2023-06-26T11:24:32;6.40;;;1.63;;
13943;SDS011;7044;53.286;8.534;2023-06-26T11:26:59;5.30;;;1.70;;
13943;SDS011;7044;53.286;8.534;2023-06-26T11:29:28;4.30;;;1.75;;
13943;SDS011;7044;53.286;8.534;2023-06-26T11:31:59;3.58;;;1.90;;
13943;SDS011;7044;53.286;8.534;2023-06-26T11:34:29;3.83;;;1.65;;
13943;SDS011;7044;53.286;8.534;2023-06-26T11:36:56;11.63;;;1.98;;
13943;SDS011;7044;53.286;8.534;2023-06-26T11:39:26;3.38;;;1.50;;
13943;SDS011;7044;53.286;8.534;2023-06-26T11:41:54;2.45;;;1.60;;
13943;SDS011;7044;53.286;8.534;2023-06-26T11:44:21;2.85;;;1.50;;
13943;SDS011;7044;53.286;8.534;2023-06-26T11:46:51;4.43;;;1.85;;
13943;SDS011;7044;53.286;8.534;2023-06-26T11:49:20;7.25;;;1.60;;
13943;SDS011;7044;53.286;8.534;2023-06-26T11:51:48;6.15;;;1.88;;
13943;SDS011;7044;53.286;8.534;2023-06-26T11:54:15;2.53;;;1.63;;
13943;SDS011;7044;53.286;8.534;2023-06-26T11:56:51;5.70;;;2.08;;
13943;SDS011;7044;53.286;8.534;2023-06-26T11:59:20;4.38;;;1.75;;
13943;SDS011;7044;53.286;8.534;2023-06-26T12:01:48;4.57;;;2.30;;
13943;SDS011;7044;53.286;8.534;2023-06-26T12:04:16;4.55;;;1.52;;
13943;SDS011;7044;53.286;8.534;2023-06-26T12:06:45;2.97;;;1.67;;
13943;SDS011;7044;53.286;8.534;2023-06-26T12:09:13;5.63;;;1.83;;
13943;SDS011;7044;53.286;8.534;2023-06-26T12:11:41;5.38;;;2.10;;
13943;SDS011;7044;53.286;8.534;2023-06-26T12:14:09;2.17;;;1.52;;
13943;SDS011;7044;53.286;8.534;2023-06-26T12:16:38;5.45;;;1.65;;
13943;SDS011;7044;53.286;8.534;2023-06-26T12:19:06;3.85;;;1.73;;
13943;SDS011;7044;53.286;8.534;2023-06-26T12:24:23;4.63;;;1.80;;
13943;SDS011;7044;53.286;8.534;2023-06-26T12:26:51;3.90;;;1.77;;
13943;SDS011;7044;53.286;8.534;2023-06-26T12:29:21;3.75;;;2.05;;
13943;SDS011;7044;53.286;8.534;2023-06-26T12:31:56;2.97;;;1.70;;
13943;SDS011;7044;53.286;8.534;2023-06-26T12:34:26;4.65;;;2.05;;
13943;SDS011;7044;53.286;8.534;2023-06-26T12:36:58;4.20;;;1.90;;
13943;SDS011;7044;53.286;8.534;2023-06-26T12:39:26;2.92;;;1.95;;
13943;SDS011;7044;53.286;8.534;2023-06-26T12:41:54;4.28;;;1.52;;
13943;SDS011;7044;53.286;8.534;2023-06-26T12:44:22;4.90;;;1.80;;
13943;SDS011;7044;53.286;8.534;2023-06-26T12:46:53;3.53;;;1.92;;
13943;SDS011;7044;53.286;8.534;2023-06-26T12:49:30;3.63;;;2.08;;
13943;SDS011;7044;53.286;8.534;2023-06-26T12:51:58;3.88;;;2.00;;
13943;SDS011;7044;53.286;8.534;2023-06-26T12:54:25;4.43;;;1.73;;
13943;SDS011;7044;53.286;8.534;2023-06-26T12:56:52;3.58;;;1.77;;
13943;SDS011;7044;53.286;8.534;2023-06-26T12:59:19;5.43;;;2.08;;
13943;SDS011;7044;53.286;8.534;2023-06-26T13:01:46;5.65;;;1.80;;
13943;SDS011;7044;53.286;8.534;2023-06-26T13:04:15;4.60;;;1.88;;
13943;SDS011;7044;53.286;8.534;2023-06-26T13:06:42;7.07;;;2.10;;
13943;SDS011;7044;53.286;8.534;2023-06-26T13:09:09;3.95;;;1.80;;
13943;SDS011;7044;53.286;8.534;2023-06-26T13:11:36;6.50;;;2.10;;
13943;SDS011;7044;53.286;8.534;2023-06-26T13:14:03;4.10;;;1.73;;
13943;SDS011;7044;53.286;8.534;2023-06-26T13:16:30;1.65;;;1.42;;
13943;SDS011;7044;53.286;8.534;2023-06-26T13:18:57;2.35;;;1.80;;
13943;SDS011;7044;53.286;8.534;2023-06-26T13:21:26;4.10;;;1.80;;
13943;SDS011;7044;53.286;8.534;2023-06-26T13:23:54;2.40;;;1.55;;
13943;SDS011;7044;53.286;8.534;2023-06-26T13:26:21;4.50;;;1.77;;
13943;SDS011;7044;53.286;8.534;2023-06-26T13:28:48;2.53;;;1.55;;
13943;SDS011;7044;53.286;8.534;2023-06-26T13:31:15;7.03;;;1.75;;
13943;SDS011;7044;53.286;8.534;2023-06-26T13:33:42;2.83;;;1.73;;
13943;SDS011;7044;53.286;8.534;2023-06-26T13:36:09;5.22;;;2.08;;
13943;SDS011;7044;53.286;8.534;2023-06-26T13:38:37;3.60;;;1.60;;
13943;SDS011;7044;53.286;8.534;2023-06-26T13:41:04;2.63;;;1.40;;
13943;SDS011;7044;53.286;8.534;2023-06-26T13:43:31;2.40;;;1.58;;
13943;SDS011;7044;53.286;8.534;2023-06-26T13:45:58;3.88;;;1.75;;
13943;SDS011;7044;53.286;8.534;2023-06-26T13:48:25;1.58;;;1.40;;
13943;SDS011;7044;53.286;8.534;2023-06-26T13:50:52;2.53;;;1.60;;
13943;SDS011;7044;53.286;8.534;2023-06-26T13:53:19;3.47;;;1.70;;
13943;SDS011;7044;53.286;8.534;2023-06-26T13:55:47;2.75;;;1.30;;
13943;SDS011;7044;53.286;8.534;2023-06-26T13:58:14;3.75;;;1.40;;
13943;SDS011;7044;53.286;8.534;2023-06-26T14:00:41;2.92;;;1.25;;
13943;SDS011;7044;53.286;8.534;2023-06-26T14:03:09;2.05;;;1.52;;
13943;SDS011;7044;53.286;8.534;2023-06-26T14:05:36;2.33;;;1.55;;
13943;SDS011;7044;53.286;8.534;2023-06-26T14:08:04;2.90;;;1.55;;
13943;SDS011;7044;53.286;8.534;2023-06-26T14:10:31;2.67;;;1.27;;
13943;SDS011;7044;53.286;8.534;2023-06-26T14:13:00;2.10;;;1.60;;
13943;SDS011;7044;53.286;8.534;2023-06-26T14:15:28;3.42;;;1.60;;
13943;SDS011;7044;53.286;8.534;2023-06-26T14:17:54;3.60;;;1.67;;
13943;SDS011;7044;53.286;8.534;2023-06-26T14:20:22;3.85;;;1.60;;
13943;SDS011;7044;53.286;8.534;2023-06-26T14:22:49;2.63;;;1.48;;
13943;SDS011;7044;53.286;8.534;2023-06-26T14:25:16;2.88;;;1.48;;
13943;SDS011;7044;53.286;8.534;2023-06-26T14:27:43;3.90;;;1.60;;
13943;SDS011;7044;53.286;8.534;2023-06-26T14:30:12;1.90;;;1.40;;
13943;SDS011;7044;53.286;8.534;2023-06-26T14:32:39;3.75;;;1.55;;
13943;SDS011;7044;53.286;8.534;2023-06-26T14:35:06;2.58;;;1.40;;
13943;SDS011;7044;53.286;8.534;2023-06-26T14:37:35;7.85;;;1.60;;
13943;SDS011;7044;53.286;8.534;2023-06-26T14:40:04;5.10;;;1.65;;
13943;SDS011;7044;53.286;8.534;2023-06-26T14:42:32;4.65;;;1.40;;
13943;SDS011;7044;53.286;8.534;2023-06-26T14:44:59;5.38;;;1.60;;
13943;SDS011;7044;53.286;8.534;2023-06-26T14:47:27;3.17;;;1.30;;
13943;SDS011;7044;53.286;8.534;2023-06-26T14:49:54;3.10;;;1.50;;
13943;SDS011;7044;53.286;8.534;2023-06-26T14:52:20;5.65;;;1.60;;
13943;SDS011;7044;53.286;8.534;2023-06-26T14:54:47;4.00;;;1.50;;
13943;SDS011;7044;53.286;8.534;2023-06-26T14:57:14;1.90;;;1.02;;
13943;SDS011;7044;53.286;8.534;2023-06-26T14:59:41;2.90;;;1.60;;
13943;SDS011;7044;53.286;8.534;2023-06-26T15:02:08;4.20;;;1.60;;
13943;SDS011;7044;53.286;8.534;2023-06-26T15:04:37;2.05;;;1.30;;
13943;SDS011;7044;53.286;8.534;2023-06-26T15:07:04;3.53;;;1.20;;
13943;SDS011;7044;53.286;8.534;2023-06-26T15:09:31;1.83;;;1.10;;
13943;SDS011;7044;53.286;8.534;2023-06-26T15:11:59;1.98;;;1.17;;
13943;SDS011;7044;53.286;8.534;2023-06-26T15:14:26;1.92;;;1.20;;
13943;SDS011;7044;53.286;8.534;2023-06-26T15:16:53;5.85;;;1.55;;